Time;durP1;ratioP1;P1;durP2;ratioP2;P2;SDS_P1;SDS_P2;PMS_P1;PMS_P2;Temp;Humidity;BMP_temperature;BMP_pressure;BME280_temperature;BME280_humidity;BME280_pressure;Samples;Min_cycle;Max_cycle;Signal;HPM_P1;HPM_P2
2021/06/09 00:00:09;;;;;;;5.85;3.85;;;16.90;84.10;;;;;;5015762;28;20117;-90
2021/06/09 00:02:36;;;;;;;;;;;16.90;84.70;;;;;;5016449;28;20460;-90
2021/06/09 00:05:02;;;;;;;5.00;4.03;;;16.90;89.40;;;;;;5015550;28;19932;-91
2021/06/09 00:07:28;;;;;;;4.22;3.63;;;16.90;84.70;;;;;;5015417;28;20075;-89
2021/06/09 00:09:54;;;;;;;4.72;3.80;;;16.90;85.00;;;;;;5015856;28;20392;-90
2021/06/09 00:12:19;;;;;;;4.93;4.03;;;16.90;84.90;;;;;;5015331;28;20033;-91
2021/06/09 00:14:45;;;;;;;4.07;3.58;;;16.90;85.10;;;;;;5016960;28;20112;-90
2021/06/09 00:17:11;;;;;;;4.50;3.67;;;16.90;85.20;;;;;;5015643;28;20029;-89
2021/06/09 00:19:36;;;;;;;5.05;4.05;;;16.90;85.30;;;;;;5016839;28;20026;-89
2021/06/09 00:22:03;;;;;;;4.75;3.90;;;16.80;85.30;;;;;;5016270;28;20046;-89
2021/06/09 00:24:29;;;;;;;5.05;3.80;;;16.80;85.20;;;;;;5027238;28;20062;-89
2021/06/09 00:26:54;;;;;;;6.32;3.88;;;16.80;85.50;;;;;;5028250;28;20022;-89
2021/06/09 00:29:21;;;;;;;4.47;3.85;;;16.70;85.80;;;;;;5018459;28;20030;-88
2021/06/09 00:31:48;;;;;;;6.20;3.72;;;16.70;85.90;;;;;;5015295;28;20026;-90
2021/06/09 00:34:14;;;;;;;5.30;4.03;;;16.70;86.00;;;;;;5016281;28;20052;-87
2021/06/09 00:36:40;;;;;;;4.55;3.47;;;16.70;86.30;;;;;;5015253;28;20025;-90
2021/06/09 00:39:06;;;;;;;5.00;4.00;;;16.60;86.60;;;;;;5015036;28;20036;-89
2021/06/09 00:41:33;;;;;;;4.95;4.03;;;16.60;86.70;;;;;;5014784;28;20495;-91
2021/06/09 00:43:59;;;;;;;4.68;3.85;;;16.60;86.70;;;;;;5014689;28;20026;-90
2021/06/09 00:46:34;;;;;;;4.65;4.03;;;16.60;86.90;;;;;;5015070;28;20108;-90
2021/06/09 00:49:00;;;;;;;4.70;4.18;;;16.60;88.50;;;;;;5015541;28;20033;-90
2021/06/09 00:51:26;;;;;;;5.00;4.28;;;16.50;87.20;;;;;;5014954;28;20030;-89
2021/06/09 00:54:01;;;;;;;4.75;3.80;;;16.50;87.30;;;;;;5014847;28;20057;-89
2021/06/09 00:56:27;;;;;;;5.20;4.35;;;16.40;87.50;;;;;;5016166;28;20022;-90
2021/06/09 00:58:54;;;;;;;4.95;4.05;;;16.40;87.70;;;;;;5015247;28;20065;-91
2021/06/09 01:01:24;;;;;;;4.70;4.10;;;16.40;87.70;;;;;;5014451;28;20022;-90
2021/06/09 01:03:51;;;;;;;4.55;3.90;;;16.40;87.90;;;;;;5014675;28;20041;-90
2021/06/09 01:06:17;;;;;;;5.50;4.05;;;16.40;88.00;;;;;;5015937;28;20025;-91
2021/06/09 01:08:44;;;;;;;6.20;4.03;;;16.30;88.10;;;;;;5014684;28;20026;-91
2021/06/09 01:11:18;;;;;;;4.65;4.00;;;16.30;88.50;;;;;;5014388;28;20050;-91
2021/06/09 01:13:44;;;;;;;5.07;4.20;;;16.30;90.30;;;;;;5015737;28;20034;-91
2021/06/09 01:16:10;;;;;;;4.75;4.00;;;16.30;88.70;;;;;;5014749;28;20125;-91
2021/06/09 01:18:37;;;;;;;5.03;3.90;;;16.30;88.70;;;;;;5014582;28;20025;-91
2021/06/09 01:21:02;;;;;;;5.15;4.35;;;16.30;88.50;;;;;;5015156;28;20030;-91
2021/06/09 01:23:29;;;;;;;5.15;3.97;;;16.30;88.60;;;;;;5013437;28;20053;-91
2021/06/09 01:25:57;;;;;;;4.95;4.07;;;16.30;88.60;;;;;;5014715;28;20060;-91
2021/06/09 01:28:23;;;;;;;5.63;4.35;;;16.20;88.70;;;;;;5015737;28;20026;-91
2021/06/09 01:30:50;;;;;;;5.57;4.32;;;16.20;89.80;;;;;;5015660;28;20037;-91
2021/06/09 01:33:17;;;;;;;5.65;4.35;;;16.20;89.40;;;;;;5016281;28;20121;-92
2021/06/09 01:35:43;;;;;;;4.95;3.95;;;16.20;89.60;;;;;;5025212;28;20032;-92
2021/06/09 01:38:10;;;;;;;4.88;4.30;;;16.20;89.70;;;;;;5028155;28;20026;-92
2021/06/09 01:40:36;;;;;;;6.78;4.63;;;16.20;89.80;;;;;;5029207;28;20030;-90
2021/06/09 01:43:03;;;;;;;5.20;4.03;;;16.20;90.00;;;;;;5038407;28;20026;-88
2021/06/09 01:45:31;;;;;;;4.85;4.22;;;16.10;90.00;;;;;;5038130;28;20032;-87
2021/06/09 01:47:57;;;;;;;5.85;4.68;;;16.10;90.00;;;;;;5037399;28;20010;-87
2021/06/09 01:50:24;;;;;;;5.93;4.68;;;16.10;90.20;;;;;;5024857;28;20059;-91
2021/06/09 01:52:51;;;;;;;5.30;4.35;;;16.10;90.30;;;;;;5015126;28;20026;-91
2021/06/09 01:55:20;;;;;;;5.15;4.35;;;16.10;90.30;;;;;;5014352;28;20026;-91
2021/06/09 01:57:46;;;;;;;6.78;4.70;;;16.20;90.30;;;;;;5015952;28;20051;-91
2021/06/09 02:00:24;;;;;;;6.18;4.15;;;16.20;90.40;;;;;;5014498;28;20032;-91
2021/06/09 02:02:53;;;;;;;4.75;3.90;;;16.20;91.00;;;;;;5015506;28;20030;-91
2021/06/09 02:05:19;;;;;;;4.85;3.85;;;16.20;90.40;;;;;;5019113;28;20033;-91
2021/06/09 02:07:45;;;;;;;6.78;4.03;;;16.20;90.40;;;;;;5015191;28;20026;-92
2021/06/09 02:10:19;;;;;;;4.90;3.92;;;16.30;90.30;;;;;;5014716;28;20025;-92
2021/06/09 02:12:47;;;;;;;4.70;3.60;;;16.30;90.60;;;;;;5015009;28;20056;-94
2021/06/09 02:15:17;;;;;;;4.53;3.78;;;16.30;90.50;;;;;;5013565;28;20037;-91
2021/06/09 02:17:56;;;;;;;4.50;3.70;;;16.30;90.20;;;;;;5013747;28;20083;-92
2021/06/09 02:20:22;;;;;;;5.05;4.00;;;16.30;90.30;;;;;;5013848;28;20041;-92
2021/06/09 02:22:48;;;;;;;4.68;3.70;;;16.40;90.20;;;;;;5015156;28;20042;-93
2021/06/09 02:25:14;;;;;;;4.97;4.25;;;16.30;90.20;;;;;;5014262;28;20103;-91
2021/06/09 02:27:39;;;;;;;4.93;4.20;;;16.30;90.30;;;;;;5014691;28;20042;-92
2021/06/09 02:30:06;;;;;;;5.80;3.83;;;16.30;90.30;;;;;;5014580;28;20052;-92
2021/06/09 02:32:33;;;;;;;4.90;4.07;;;16.40;90.40;;;;;;5013708;28;20029;-92
2021/06/09 02:34:59;;;;;;;4.57;3.95;;;16.40;90.40;;;;;;5013894;28;20057;-92
2021/06/09 02:37:25;;;;;;;5.40;3.88;;;16.40;90.40;;;;;;5013853;28;20469;-91
2021/06/09 02:39:50;;;;;;;5.15;4.07;;;16.40;90.40;;;;;;5015510;28;20041;-92
2021/06/09 02:42:20;;;;;;;4.32;3.92;;;16.50;90.30;;;;;;5016962;28;20026;-93
2021/06/09 02:44:46;;;;;;;4.38;3.53;;;16.50;90.40;;;;;;5014934;28;20030;-93
2021/06/09 02:47:15;;;;;;;4.22;3.63;;;16.50;90.30;;;;;;5015226;28;20022;-91
2021/06/09 02:49:42;;;;;;;4.50;3.60;;;16.50;90.40;;;;;;5015123;28;20032;-93
2021/06/09 02:52:22;;;;;;;5.68;3.80;;;16.60;90.30;;;;;;5013579;28;20080;-92
2021/06/09 02:54:59;;;;;;;4.00;3.40;;;16.60;90.50;;;;;;5013834;28;20030;-93
2021/06/09 02:58:06;;;;;;;4.82;3.67;;;16.70;90.40;;;;;;5014490;28;20469;-93
2021/06/09 03:00:56;;;;;;;4.32;3.58;;;16.70;91.40;;;;;;5018545;28;20030;-91
2021/06/09 03:03:46;;;;;;;4.10;3.70;;;16.70;90.60;;;;;;5017099;28;20029;-92
2021/06/09 03:06:45;;;;;;;4.30;3.60;;;16.80;90.80;;;;;;5016661;28;20030;-92
2021/06/09 03:09:24;;;;;;;4.30;3.58;;;16.80;90.40;;;;;;5013253;28;20102;-91
2021/06/09 03:12:00;;;;;;;4.60;3.63;;;16.90;90.10;;;;;;5014753;28;20030;-91
2021/06/09 03:15:10;;;;;;;3.40;3.10;;;16.90;90.00;;;;;;5013259;28;20439;-92
2021/06/09 03:17:53;;;;;;;4.43;3.57;;;16.90;91.10;;;;;;5014187;28;20488;-91
2021/06/09 03:20:26;;;;;;;4.20;3.70;;;16.90;90.00;;;;;;5013205;28;20479;-91
2021/06/09 03:23:01;;;;;;;3.75;3.35;;;17.00;89.70;;;;;;5025207;28;20510;-91
2021/06/09 03:25:33;;;;;;;4.40;3.67;;;17.00;89.40;;;;;;5016283;28;20043;-91
2021/06/09 03:28:20;;;;;;;4.45;3.55;;;17.00;89.50;;;;;;5016318;28;20033;-91
2021/06/09 03:30:53;;;;;;;4.30;3.42;;;17.10;90.60;;;;;;5016106;28;20096;-91
2021/06/09 03:33:21;;;;;;;3.58;3.28;;;17.10;89.50;;;;;;5017536;28;20363;-91
2021/06/09 03:36:01;;;;;;;3.78;3.30;;;17.10;89.40;;;;;;5036831;28;20030;-91
2021/06/09 03:38:32;;;;;;;5.07;3.60;;;17.20;89.60;;;;;;5019774;28;20021;-89
2021/06/09 03:41:03;;;;;;;3.72;3.30;;;17.20;89.30;;;;;;5019021;28;20037;-89
2021/06/09 03:43:34;;;;;;;4.38;3.50;;;17.20;89.20;;;;;;5019825;28;20477;-90
2021/06/09 03:46:07;;;;;;;4.30;3.47;;;17.30;89.20;;;;;;5019195;28;20491;-93
2021/06/09 03:48:39;;;;;;;4.22;3.38;;;17.30;88.80;;;;;;5020262;28;20036;-92
2021/06/09 03:51:06;;;;;;;4.43;3.42;;;17.40;88.40;;;;;;5018741;28;20118;-91
2021/06/09 03:53:33;;;;;;;5.53;3.58;;;17.40;88.20;;;;;;5019525;28;20108;-90
2021/06/09 03:56:05;;;;;;;4.47;3.10;;;17.40;87.90;;;;;;5021798;28;20049;-91
2021/06/09 03:58:31;;;;;;;4.05;3.20;;;17.50;88.00;;;;;;5039112;28;20026;-89
2021/06/09 04:00:59;;;;;;;3.67;3.03;;;17.50;87.90;;;;;;5021941;28;20034;-89
2021/06/09 04:03:26;;;;;;;4.13;2.97;;;17.60;87.70;;;;;;5053464;28;20204;-92
2021/06/09 04:05:54;;;;;;;4.88;3.38;;;17.60;88.20;;;;;;5022964;28;20025;-91
2021/06/09 04:08:21;;;;;;;4.45;3.55;;;17.60;87.40;;;;;;5017352;28;20029;-90
2021/06/09 04:10:47;;;;;;;4.32;3.05;;;17.70;87.50;;;;;;5020341;28;20056;-91
2021/06/09 04:13:15;;;;;;;4.40;3.30;;;17.70;87.20;;;;;;5020629;28;20357;-91
2021/06/09 04:15:41;;;;;;;4.40;3.30;;;17.70;87.10;;;;;;5020012;28;20091;-93
2021/06/09 04:18:08;;;;;;;4.00;3.13;;;17.80;87.00;;;;;;5037442;28;20029;-92
2021/06/09 04:20:36;;;;;;;3.53;2.97;;;17.80;86.90;;;;;;5019453;28;20052;-93
2021/06/09 04:23:04;;;;;;;3.88;3.10;;;17.90;86.60;;;;;;5018202;28;20049;-90
2021/06/09 04:25:30;;;;;;;3.53;2.90;;;17.90;86.60;;;;;;5019046;28;20124;-92
2021/06/09 04:27:56;;;;;;;4.25;3.20;;;17.90;86.50;;;;;;5037528;28;20029;-90
2021/06/09 04:30:23;;;;;;;3.20;2.88;;;18.00;86.40;;;;;;5037138;28;20052;-91
2021/06/09 04:32:52;;;;;;;3.15;2.85;;;18.10;86.20;;;;;;4999948;28;20036;-91
2021/06/09 04:35:23;;;;;;;3.50;2.90;;;18.20;85.90;;;;;;4999638;28;20080;-91
2021/06/09 04:37:51;;;;;;;3.03;2.72;;;18.20;85.80;;;;;;5017618;28;20041;-93
2021/06/09 04:40:27;;;;;;;11.73;8.85;;;18.30;85.70;;;;;;4999515;28;20053;-87
2021/06/09 04:42:55;;;;;;;8.95;5.95;;;18.30;85.50;;;;;;4998859;28;20022;-93
2021/06/09 04:45:23;;;;;;;5.47;4.68;;;18.40;85.20;;;;;;4999663;28;20464;-90
2021/06/09 04:47:49;;;;;;;4.50;3.70;;;18.50;84.90;;;;;;4999596;28;20057;-92
2021/06/09 04:50:21;;;;;;;4.18;3.25;;;18.60;84.60;;;;;;5017637;28;20049;-94
2021/06/09 04:52:47;;;;;;;3.72;3.13;;;18.70;84.40;;;;;;5002528;28;20037;-92
2021/06/09 04:55:14;;;;;;;3.30;2.90;;;18.80;84.00;;;;;;4999273;28;20095;-92
2021/06/09 04:57:43;;;;;;;4.32;3.45;;;18.90;83.80;;;;;;4998543;28;20476;-82
2021/06/09 05:00:17;;;;;;;4.03;3.25;;;18.90;83.40;;;;;;4999034;28;20041;-93
2021/06/09 05:02:44;;;;;;;3.45;3.10;;;19.10;82.80;;;;;;5015913;28;20153;-88
2021/06/09 05:05:12;;;;;;;3.35;2.85;;;19.10;82.50;;;;;;4998211;28;20030;-85
2021/06/09 05:07:38;;;;;;;2.70;2.50;;;19.20;82.30;;;;;;4998168;28;20026;-88
2021/06/09 05:10:07;;;;;;;2.65;2.40;;;19.20;82.10;;;;;;5035256;28;20042;-84
2021/06/09 05:12:43;;;;;;;2.70;2.30;;;19.30;82.00;;;;;;5017029;28;20133;-87
2021/06/09 05:15:11;;;;;;;2.53;2.03;;;19.40;81.80;;;;;;5017621;28;20061;-85
2021/06/09 05:17:44;;;;;;;40.92;27.92;;;19.50;81.60;;;;;;5018072;28;20352;-89
2021/06/09 05:20:16;;;;;;;18.58;12.30;;;19.60;81.30;;;;;;5018134;28;20045;-95
2021/06/09 05:23:06;;;;;;;10.18;7.10;;;19.60;81.00;;;;;;5016819;28;20547;-92
2021/06/09 05:25:33;;;;;;;6.53;5.30;;;19.70;80.30;;;;;;5035591;28;20025;-92
2021/06/09 05:28:01;;;;;;;5.05;4.10;;;19.70;80.00;;;;;;5016120;28;20048;-91
2021/06/09 05:30:28;;;;;;;5.65;3.60;;;19.80;79.60;;;;;;5017000;28;20116;-92
2021/06/09 05:32:56;;;;;;;3.28;2.90;;;19.80;79.30;;;;;;5039514;28;20117;-92
2021/06/09 05:35:23;;;;;;;3.63;2.88;;;19.90;79.70;;;;;;5022850;28;20036;-88
2021/06/09 05:37:50;;;;;;;3.08;2.40;;;19.90;78.90;;;;;;5045091;28;20045;-90
2021/06/09 05:40:18;;;;;;;3.28;2.50;;;19.90;78.70;;;;;;5027013;28;20029;-91
2021/06/09 05:42:45;;;;;;;3.00;2.30;;;20.00;78.60;;;;;;5031941;28;20033;-91
2021/06/09 05:45:12;;;;;;;2.50;2.30;;;20.00;78.40;;;;;;5049665;28;20030;-93
2021/06/09 05:47:45;;;;;;;2.75;2.30;;;20.10;78.10;;;;;;5033222;28;20025;-91
2021/06/09 05:50:18;;;;;;;2.45;2.00;;;20.20;77.70;;;;;;5036518;28;20053;-91
2021/06/09 05:52:49;;;;;;;2.78;2.10;;;20.30;77.70;;;;;;5046980;28;20048;-91
2021/06/09 05:55:20;;;;;;;2.97;2.50;;;20.30;77.40;;;;;;5024112;28;20037;-93
2021/06/09 05:57:46;;;;;;;2.92;2.20;;;20.40;77.00;;;;;;5030763;28;20036;-93
2021/06/09 06:00:14;;;;;;;2.33;2.00;;;20.50;76.90;;;;;;5034249;28;20028;-94
2021/06/09 06:02:40;;;;;;;2.25;2.00;;;20.60;76.80;;;;;;5035967;28;20036;-95
2021/06/09 06:05:07;;;;;;;2.75;2.35;;;20.70;76.50;;;;;;5035809;28;20030;-91
2021/06/09 06:07:34;;;;;;;3.63;2.45;;;20.70;76.10;;;;;;5037717;28;20026;-92
2021/06/09 06:10:01;;;;;;;3.08;2.33;;;20.80;75.80;;;;;;5056930;28;20053;-92
2021/06/09 06:12:27;;;;;;;3.70;2.45;;;20.90;75.50;;;;;;5040319;28;20034;-92
2021/06/09 06:14:54;;;;;;;2.50;2.30;;;20.90;75.30;;;;;;5039654;28;20029;-93
2021/06/09 06:17:20;;;;;;;3.35;2.38;;;20.90;75.10;;;;;;5027035;28;20025;-93
2021/06/09 06:19:49;;;;;;;2.38;2.10;;;21.00;75.00;;;;;;5038143;28;20021;-94
2021/06/09 06:22:17;;;;;;;2.53;2.25;;;21.10;74.80;;;;;;5036951;28;20057;-93
2021/06/09 06:24:46;;;;;;;5.15;3.08;;;21.10;74.70;;;;;;5019295;28;20029;-92
2021/06/09 06:27:13;;;;;;;2.93;2.30;;;21.20;74.10;;;;;;5018936;28;20041;-93
2021/06/09 06:29:39;;;;;;;2.78;2.35;;;21.30;73.80;;;;;;5036733;28;20053;-92
2021/06/09 06:32:07;;;;;;;3.30;2.53;;;21.40;74.30;;;;;;5020270;28;20080;-94
2021/06/09 06:34:40;;;;;;;2.28;2.05;;;21.50;73.20;;;;;;5018924;28;20380;-93
2021/06/09 06:37:07;;;;;;;3.30;2.35;;;21.50;72.90;;;;;;5018235;28;20034;-94
2021/06/09 06:39:34;;;;;;;2.90;2.20;;;21.60;72.70;;;;;;5018148;28;20036;-93
2021/06/09 06:42:00;;;;;;;2.55;2.10;;;21.70;72.50;;;;;;5018183;28;20026;-92
2021/06/09 06:44:27;;;;;;;2.35;1.95;;;21.80;72.20;;;;;;5035167;28;20025;-92
2021/06/09 06:46:53;;;;;;;2.33;2.13;;;21.80;71.70;;;;;;5029397;28;20030;-92
2021/06/09 06:49:19;;;;;;;2.42;2.10;;;21.90;71.60;;;;;;5049683;28;20411;-92
2021/06/09 06:51:46;;;;;;;2.95;2.20;;;21.90;71.20;;;;;;5027563;28;20025;-92
2021/06/09 06:54:12;;;;;;;2.15;1.80;;;22.00;71.20;;;;;;5037503;28;20037;-93
2021/06/09 06:56:38;;;;;;;2.08;1.88;;;22.10;70.10;;;;;;5038191;28;20025;-92
2021/06/09 06:59:05;;;;;;;1.75;1.65;;;22.10;69.60;;;;;;5018199;28;20034;-92
2021/06/09 07:01:35;;;;;;;1.70;1.60;;;22.20;69.40;;;;;;5036434;28;20409;-93
2021/06/09 07:04:02;;;;;;;2.00;1.90;;;22.30;68.80;;;;;;5035645;28;20030;-93
2021/06/09 07:06:29;;;;;;;2.72;1.92;;;22.30;68.60;;;;;;5035057;28;20022;-93
2021/06/09 07:08:56;;;;;;;2.22;2.03;;;22.30;68.30;;;;;;5016699;28;20143;-93
2021/06/09 07:11:22;;;;;;;2.35;2.15;;;22.40;67.80;;;;;;5034065;28;20030;-92
2021/06/09 07:13:51;;;;;;;2.30;2.10;;;22.40;67.40;;;;;;5033571;28;20048;-91
2021/06/09 07:16:18;;;;;;;2.08;1.88;;;22.50;67.50;;;;;;5016726;28;20030;-91
2021/06/09 07:18:46;;;;;;;2.10;1.73;;;22.60;67.60;;;;;;5016542;28;20112;-91
2021/06/09 07:21:21;;;;;;;2.33;2.13;;;22.70;67.50;;;;;;5019930;28;20051;-91
2021/06/09 07:23:47;;;;;;;2.20;2.00;;;22.90;66.40;;;;;;5038988;28;20081;-91
2021/06/09 07:26:17;;;;;;;2.65;2.33;;;23.00;66.50;;;;;;5021607;28;20057;-90
2021/06/09 07:28:50;;;;;;;3.45;2.65;;;23.00;65.90;;;;;;5039677;28;20032;-90
2021/06/09 07:31:21;;;;;;;3.22;2.63;;;23.10;65.50;;;;;;5020361;28;20053;-92
2021/06/09 07:33:47;;;;;;;2.38;2.17;;;23.10;66.00;;;;;;5019842;28;20033;-91
2021/06/09 07:36:16;;;;;;;2.38;2.13;;;23.20;65.20;;;;;;5038722;28;20025;-93
2021/06/09 07:38:50;;;;;;;2.30;1.90;;;23.30;65.20;;;;;;5037734;28;20097;-92
2021/06/09 07:41:18;;;;;;;2.17;1.98;;;23.40;63.90;;;;;;5020393;28;20026;-92
2021/06/09 07:43:47;;;;;;;2.47;2.03;;;23.60;64.80;;;;;;5019785;28;20032;-92
2021/06/09 07:46:16;;;;;;;2.30;2.10;;;23.60;64.30;;;;;;5019601;28;20100;-91
2021/06/09 07:48:46;;;;;;;2.20;2.00;;;23.80;64.10;;;;;;5036943;28;20029;-91
2021/06/09 07:51:13;;;;;;;2.78;1.95;;;23.90;63.80;;;;;;5037358;28;20116;-91
2021/06/09 07:53:41;;;;;;;2.22;2.03;;;24.00;63.70;;;;;;5019305;28;20029;-94
2021/06/09 07:56:08;;;;;;;2.38;2.10;;;24.00;63.50;;;;;;5037119;28;20030;-91
2021/06/09 07:58:34;;;;;;;3.60;2.00;;;24.10;63.50;;;;;;5037303;28;20021;-92
2021/06/09 08:01:02;;;;;;;2.47;2.28;;;24.20;62.80;;;;;;5019463;28;20403;-92
2021/06/09 08:03:31;;;;;;;2.28;2.08;;;24.30;62.80;;;;;;5019409;28;20029;-93
2021/06/09 08:05:57;;;;;;;3.53;2.20;;;24.40;62.80;;;;;;5020628;28;20021;-91
2021/06/09 08:08:25;;;;;;;2.13;1.92;;;24.50;62.40;;;;;;5037786;28;20088;-91
2021/06/09 08:10:51;;;;;;;2.13;1.92;;;24.50;62.20;;;;;;5019536;28;20030;-92
2021/06/09 08:13:17;;;;;;;2.28;2.08;;;24.60;62.10;;;;;;5019436;28;20087;-91
2021/06/09 08:15:43;;;;;;;2.55;2.08;;;24.80;62.40;;;;;;5018929;28;20056;-92
2021/06/09 08:18:09;;;;;;;2.53;2.33;;;25.00;62.70;;;;;;5036678;28;20018;-92
2021/06/09 08:20:48;;;;;;;2.45;2.25;;;25.10;62.20;;;;;;5036688;28;20520;-92
2021/06/09 08:23:14;;;;;;;2.40;2.20;;;25.30;63.20;;;;;;5019503;28;20053;-91
2021/06/09 08:25:39;;;;;;;2.40;2.20;;;25.60;63.20;;;;;;5036555;28;20037;-92
2021/06/09 08:28:05;;;;;;;2.15;1.95;;;25.90;63.20;;;;;;5036344;28;20411;-91
2021/06/09 08:30:31;;;;;;;2.40;2.20;;;26.20;63.40;;;;;;5035474;28;20502;-92
2021/06/09 08:32:56;;;;;;;2.25;2.05;;;26.60;63.50;;;;;;5036116;28;20109;-90
2021/06/09 08:35:25;;;;;;;3.97;2.20;;;26.90;63.40;;;;;;5036193;28;20349;-92
2021/06/09 08:37:51;;;;;;;2.25;2.05;;;27.30;63.20;;;;;;5036961;28;20048;-90
2021/06/09 08:40:16;;;;;;;2.25;2.05;;;27.70;63.40;;;;;;5035936;28;20456;-91
2021/06/09 08:42:43;;;;;;;2.47;2.28;;;28.10;63.00;;;;;;5036092;28;20345;-92
2021/06/09 08:45:11;;;;;;;2.40;2.20;;;28.50;62.60;;;;;;5035806;28;20030;-91
2021/06/09 08:47:38;;;;;;;3.63;2.28;;;28.80;61.40;;;;;;5035792;28;20029;-90
2021/06/09 08:50:11;;;;;;;2.80;2.60;;;29.00;61.30;;;;;;5018219;28;20438;-91
2021/06/09 08:52:51;;;;;;;3.25;2.45;;;29.30;60.90;;;;;;5018323;28;20116;-91
2021/06/09 08:55:17;;;;;;;;;;;29.60;55.80;;;;;;5035797;28;20048;-91
2021/06/09 08:57:43;;;;;;;2.50;2.30;;;29.60;50.30;;;;;;5035498;28;19912;-92
2021/06/09 09:00:12;;;;;;;2.45;2.25;;;29.80;59.40;;;;;;5035457;28;20059;-91
2021/06/09 09:02:39;;;;;;;2.40;2.20;;;30.00;58.00;;;;;;5035428;28;20026;-91
2021/06/09 09:05:09;;;;;;;2.30;2.10;;;30.10;57.50;;;;;;5017793;28;20026;-91
2021/06/09 09:07:36;;;;;;;2.40;2.20;;;30.30;55.50;;;;;;5017401;28;20471;-91
2021/06/09 09:10:04;;;;;;;2.58;2.30;;;30.40;56.60;;;;;;5035370;28;20468;-91
2021/06/09 09:12:30;;;;;;;2.38;2.17;;;30.70;55.80;;;;;;5017927;28;20031;-90
2021/06/09 09:14:58;;;;;;;5.13;2.50;;;30.80;55.40;;;;;;5035457;28;20114;-91
2021/06/09 09:17:24;;;;;;;2.30;2.10;;;31.00;54.20;;;;;;5037453;28;20090;-90
2021/06/09 09:19:51;;;;;;;2.00;1.90;;;31.00;53.60;;;;;;5038259;28;20061;-91
2021/06/09 09:22:21;;;;;;;2.45;2.25;;;31.00;53.30;;;;;;5034709;28;20046;-93
2021/06/09 09:24:50;;;;;;;2.55;2.28;;;31.20;53.40;;;;;;5016966;28;20025;-90
2021/06/09 09:27:38;;;;;;;2.17;1.98;;;31.20;51.20;;;;;;5017115;28;20040;-90
2021/06/09 09:30:08;;;;;;;2.40;2.20;;;31.00;50.40;;;;;;5034198;28;20034;-91
2021/06/09 09:32:35;;;;;;;2.35;2.00;;;31.00;50.10;;;;;;5035163;28;20030;-91
2021/06/09 09:35:28;;;;;;;2.10;1.90;;;31.00;50.30;;;;;;5035696;28;20026;-89
2021/06/09 09:38:28;;;;;;;1.85;1.75;;;31.10;46.50;;;;;;5032802;28;20044;-91
2021/06/09 09:41:09;;;;;;;1.95;1.83;;;31.30;45.40;;;;;;5016493;28;20075;-90
2021/06/09 09:43:52;;;;;;;1.80;1.70;;;31.40;45.50;;;;;;5016584;28;20372;-90
2021/06/09 09:46:24;;;;;;;2.20;2.00;;;31.50;46.80;;;;;;5034334;28;20037;-90
2021/06/09 09:49:13;;;;;;;2.33;1.90;;;31.60;48.80;;;;;;5016701;28;20029;-90
2021/06/09 09:51:44;;;;;;;1.88;1.77;;;31.90;45.90;;;;;;5034329;28;20416;-90
2021/06/09 09:54:12;;;;;;;1.80;1.70;;;32.10;47.70;;;;;;5034292;28;20480;-91
2021/06/09 09:56:39;;;;;;;1.73;1.63;;;32.40;48.40;;;;;;5034175;28;20028;-90
2021/06/09 09:59:14;;;;;;;2.20;2.00;;;32.50;47.90;;;;;;5016277;28;20033;-90
2021/06/09 10:01:43;;;;;;;2.33;2.13;;;32.70;44.90;;;;;;5034287;28;20029;-92
2021/06/09 10:04:09;;;;;;;;;;;32.70;46.20;;;;;;5035394;28;20029;-93
2021/06/09 10:06:42;;;;;;;3.03;2.30;;;32.40;42.20;;;;;;5034270;28;19905;-91
2021/06/09 10:09:14;;;;;;;2.47;1.85;;;32.50;44.70;;;;;;5034027;28;20029;-91
2021/06/09 10:11:44;;;;;;;1.67;1.58;;;32.60;44.90;;;;;;5016441;28;20124;-92
2021/06/09 10:14:24;;;;;;;1.90;1.80;;;32.80;46.00;;;;;;5033990;28;20025;-90
2021/06/09 10:17:07;;;;;;;1.80;1.70;;;33.10;43.20;;;;;;5034476;28;20025;-90
2021/06/09 10:19:49;;;;;;;1.75;1.65;;;33.30;43.70;;;;;;5017316;28;20029;-91
2021/06/09 10:22:25;;;;;;;1.88;1.77;;;33.40;44.90;;;;;;5016634;28;20136;-91
2021/06/09 10:25:00;;;;;;;1.90;1.80;;;33.50;44.70;;;;;;5016909;28;20026;-90
2021/06/09 10:27:47;;;;;;;1.92;1.83;;;33.60;42.70;;;;;;5033736;28;20025;-90
2021/06/09 10:30:25;;;;;;;1.77;1.67;;;33.80;39.50;;;;;;5033988;28;20021;-92
2021/06/09 10:32:58;;;;;;;2.58;1.58;;;33.90;41.00;;;;;;5034230;28;20025;-91
2021/06/09 10:35:30;;;;;;;11.23;10.13;;;33.90;41.50;;;;;;5035456;28;20072;-91
2021/06/09 10:37:56;;;;;;;4.00;3.60;;;34.10;42.90;;;;;;5015677;28;20029;-91
2021/06/09 10:40:26;;;;;;;4.38;2.63;;;34.20;42.70;;;;;;5017664;28;20479;-90
2021/06/09 10:42:55;;;;;;;2.20;2.00;;;34.40;42.20;;;;;;5017269;28;20506;-92
2021/06/09 10:45:22;;;;;;;2.20;1.80;;;34.50;42.00;;;;;;5016164;28;20029;-90
2021/06/09 10:47:53;;;;;;;1.95;1.80;;;34.50;41.70;;;;;;5033457;28;20079;-92
2021/06/09 10:50:20;;;;;;;2.45;2.25;;;34.60;41.70;;;;;;5033868;28;20030;-90
2021/06/09 10:52:47;;;;;;;2.20;2.00;;;34.70;41.50;;;;;;5015736;28;20120;-91
2021/06/09 10:55:12;;;;;;;2.10;2.00;;;34.70;41.10;;;;;;5015454;28;20029;-91
2021/06/09 10:57:38;;;;;;;2.40;2.20;;;34.60;41.20;;;;;;5015504;28;20079;-92
2021/06/09 11:00:07;;;;;;;2.10;2.00;;;34.50;40.80;;;;;;5033239;28;20053;-92
2021/06/09 11:02:34;;;;;;;2.10;2.00;;;34.60;41.00;;;;;;5033517;28;20460;-90
2021/06/09 11:05:07;;;;;;;2.25;2.05;;;34.50;40.70;;;;;;5033440;28;20030;-91
2021/06/09 11:07:40;;;;;;;2.58;2.00;;;34.60;40.70;;;;;;5016201;28;20423;-90
2021/06/09 11:10:08;;;;;;;4.05;1.90;;;34.70;41.00;;;;;;5035391;28;20033;-91
2021/06/09 11:12:42;;;;;;;1.98;1.80;;;34.80;40.90;;;;;;5018120;28;20179;-90
2021/06/09 11:15:14;;;;;;;2.03;1.92;;;34.90;40.40;;;;;;5033893;28;20044;-89
2021/06/09 11:17:43;;;;;;;1.90;1.80;;;34.90;40.60;;;;;;5034060;28;20033;-91
2021/06/09 11:20:21;;;;;;;2.05;1.95;;;35.00;40.00;;;;;;5034032;28;20124;-92
2021/06/09 11:22:52;;;;;;;2.10;1.90;;;35.00;38.90;;;;;;5033571;28;20050;-91
2021/06/09 11:25:24;;;;;;;2.28;2.00;;;34.80;38.60;;;;;;5033314;28;20104;-93
2021/06/09 11:27:54;;;;;;;2.17;2.00;;;34.50;39.60;;;;;;5016161;28;20033;-91
2021/06/09 11:30:23;;;;;;;2.20;2.00;;;34.40;40.10;;;;;;5033457;28;20080;-91
2021/06/09 11:32:49;;;;;;;1.90;1.80;;;34.50;40.50;;;;;;5033154;28;20026;-92
2021/06/09 11:35:15;;;;;;;2.42;2.15;;;34.60;40.70;;;;;;5033062;28;20038;-90
2021/06/09 11:38:02;;;;;;;1.73;1.63;;;34.90;39.80;;;;;;5015241;28;20037;-91
2021/06/09 11:40:50;;;;;;;1.33;1.30;;;35.00;39.10;;;;;;5033555;28;20025;-91
2021/06/09 11:43:29;;;;;;;1.60;1.50;;;35.20;35.00;;;;;;5033246;28;20027;-90
2021/06/09 11:46:00;;;;;;;1.85;1.75;;;35.10;36.20;;;;;;5033140;28;20117;-92
2021/06/09 11:48:27;;;;;;;3.05;2.10;;;34.80;37.30;;;;;;5015401;28;20029;-91
2021/06/09 11:50:57;;;;;;;2.25;2.05;;;34.60;37.90;;;;;;5015294;28;20036;-90
2021/06/09 11:53:36;;;;;;;1.67;1.58;;;34.60;37.90;;;;;;5034017;28;20029;-90
2021/06/09 11:56:22;;;;;;;1.90;1.80;;;34.80;37.00;;;;;;5034240;28;20033;-88
2021/06/09 11:58:51;;;;;;;1.88;1.70;;;34.80;37.10;;;;;;5015087;28;20037;-89
2021/06/09 12:01:20;;;;;;;3.25;2.30;;;34.70;38.30;;;;;;5015021;28;20120;-89
2021/06/09 12:04:06;;;;;;;2.30;2.10;;;34.60;38.50;;;;;;5015372;28;20072;-90
2021/06/09 12:06:44;;;;;;;2.20;2.00;;;34.70;39.00;;;;;;5016455;28;20057;-90
2021/06/09 12:09:11;;;;;;;1.83;1.73;;;34.90;38.50;;;;;;5018452;28;20080;-90
2021/06/09 12:11:40;;;;;;;3.17;2.08;;;35.00;39.10;;;;;;5018352;28;20035;-90
2021/06/09 12:14:30;;;;;;;2.50;2.10;;;35.40;38.80;;;;;;5018903;28;20034;-90
2021/06/09 12:17:11;;;;;;;2.25;2.10;;;35.70;36.50;;;;;;5018615;28;20105;-90
2021/06/09 12:19:45;;;;;;;2.13;1.92;;;35.80;37.10;;;;;;5018840;28;20030;-92
2021/06/09 12:22:20;;;;;;;2.10;2.00;;;35.90;38.00;;;;;;5035918;28;20048;-90
2021/06/09 12:25:04;;;;;;;2.40;2.20;;;36.00;37.10;;;;;;5018297;28;20087;-91
2021/06/09 12:27:31;;;;;;;2.85;2.10;;;36.00;36.20;;;;;;5036054;28;20384;-91
2021/06/09 12:29:57;;;;;;;2.13;2.03;;;35.70;37.30;;;;;;5018376;28;20030;-91
2021/06/09 12:32:28;;;;;;;1.90;1.80;;;35.30;37.70;;;;;;5018000;28;20028;-90
2021/06/09 12:35:09;;;;;;;2.03;1.92;;;35.20;38.10;;;;;;5018567;28;20404;-90
2021/06/09 12:38:02;;;;;;;3.13;2.13;;;35.30;37.20;;;;;;5018254;28;20108;-89
2021/06/09 12:40:31;;;;;;;2.85;2.00;;;35.60;38.20;;;;;;5032623;28;20034;-91
2021/06/09 12:43:13;;;;;;;3.03;2.10;;;35.90;37.90;;;;;;5017934;28;20061;-91
2021/06/09 12:45:41;;;;;;;2.33;2.13;;;36.10;36.50;;;;;;5036467;28;20361;-91
2021/06/09 12:48:14;;;;;;;2.33;2.22;;;36.20;37.40;;;;;;5018301;28;20557;-91
2021/06/09 12:50:47;;;;;;;2.17;1.90;;;36.30;37.10;;;;;;5017968;28;20037;-91
2021/06/09 12:53:19;;;;;;;2.10;1.90;;;36.40;36.60;;;;;;5035569;28;20040;-91
2021/06/09 12:55:50;;;;;;;1.80;1.70;;;36.40;36.40;;;;;;5024426;28;20038;-91
2021/06/09 12:58:21;;;;;;;1.88;1.77;;;36.10;36.00;;;;;;5026019;28;20022;-89
2021/06/09 13:00:53;;;;;;;34.78;31.25;;;35.70;36.40;;;;;;5015667;28;20033;-87
2021/06/09 13:03:42;;;;;;;11.07;9.95;;;34.90;36.30;;;;;;4997801;28;20033;-88